createdAt,value
2023-05-16T00:02:12.698Z,28.52
2023-05-16T00:04:40.070Z,22.92
2023-05-16T00:07:07.376Z,25.65
2023-05-16T00:09:34.651Z,19.88
2023-05-16T00:12:02.034Z,24.83
2023-05-16T00:14:29.831Z,33.25
2023-05-16T00:17:01.138Z,22.02
2023-05-16T00:19:28.652Z,22.48
2023-05-16T00:21:56.089Z,23.58
2023-05-16T00:24:23.460Z,19.35
2023-05-16T00:26:50.767Z,21.25
2023-05-16T00:29:18.071Z,25.45
2023-05-16T00:31:45.434Z,25.33
2023-05-16T00:34:12.733Z,22.42
2023-05-16T00:36:40.148Z,24.75
2023-05-16T00:39:11.500Z,20.30
2023-05-16T00:41:39.181Z,23.23
2023-05-16T00:44:06.919Z,22.25
2023-05-16T00:46:34.212Z,26.90
2023-05-16T00:49:01.462Z,26.10
2023-05-16T00:51:29.429Z,24.02
2023-05-16T00:53:57.541Z,27.65
2023-05-16T00:56:25.005Z,27.15
2023-05-16T00:58:52.214Z,30.77
2023-05-16T01:01:23.764Z,31.35
2023-05-16T01:03:52.703Z,28.15
2023-05-16T01:06:20.579Z,28.52
2023-05-16T01:08:47.917Z,27.42
2023-05-16T01:11:38.981Z,29.58
2023-05-16T01:14:26.909Z,35.75
2023-05-16T01:17:05.061Z,28.05
2023-05-16T01:20:23.199Z,33.53
2023-05-16T01:23:34.475Z,27.75
2023-05-16T01:26:25.478Z,31.65
2023-05-16T01:28:54.558Z,31.48
2023-05-16T01:31:23.881Z,38.03
2023-05-16T01:33:51.977Z,47.13
2023-05-16T01:36:46.119Z,38.55
2023-05-16T01:39:57.599Z,49.05
2023-05-16T01:42:33.573Z,47.38
2023-05-16T01:45:21.347Z,52.35
2023-05-16T01:48:24.413Z,58.33
2023-05-16T01:50:57.523Z,51.50
2023-05-16T01:53:38.969Z,59.40
2023-05-16T01:56:15.457Z,68.70
2023-05-16T01:58:43.626Z,77.03
2023-05-16T02:01:13.528Z,98.75
2023-05-16T02:03:40.790Z,71.15
2023-05-16T02:06:08.360Z,79.35
2023-05-16T02:08:35.547Z,80.13
2023-05-16T02:11:03.013Z,54.90
2023-05-16T02:13:30.472Z,80.95
2023-05-16T02:16:04.173Z,76.82
2023-05-16T02:18:31.902Z,80.80
2023-05-16T02:20:59.331Z,76.70
2023-05-16T02:23:26.475Z,73.45
2023-05-16T02:25:54.218Z,68.55
2023-05-16T02:28:23.117Z,47.40
2023-05-16T02:31:01.389Z,48.13
2023-05-16T02:33:29.697Z,56.30
2023-05-16T02:35:57.002Z,60.33
2023-05-16T02:38:26.698Z,64.25
2023-05-16T02:40:56.316Z,66.93
2023-05-16T02:43:23.611Z,60.90
2023-05-16T02:45:50.883Z,62.90
2023-05-16T02:48:18.069Z,70.93
2023-05-16T02:50:45.343Z,64.93
2023-05-16T02:53:13.294Z,60.30
2023-05-16T02:55:40.677Z,68.05
2023-05-16T02:58:08.231Z,66.22
2023-05-16T03:00:35.546Z,65.03
2023-05-16T03:03:02.895Z,72.45
2023-05-16T03:05:30.349Z,60.08
2023-05-16T03:07:57.844Z,57.13
2023-05-16T03:10:25.172Z,58.28
2023-05-16T03:12:52.414Z,55.47
2023-05-16T03:15:19.573Z,50.83
2023-05-16T03:17:47.064Z,49.03
2023-05-16T03:20:15.410Z,44.20
2023-05-16T03:25:11.359Z,43.47
2023-05-16T03:27:41.403Z,42.15
2023-05-16T03:30:09.553Z,35.90
2023-05-16T03:32:38.646Z,35.40
2023-05-16T03:35:06.312Z,38.75
2023-05-16T03:37:34.475Z,50.20
2023-05-16T03:40:01.820Z,43.85
2023-05-16T03:42:29.695Z,45.83
2023-05-16T03:44:57.768Z,45.05
2023-05-16T03:47:25.263Z,55.45
2023-05-16T03:49:53.233Z,68.72
2023-05-16T03:52:20.691Z,66.80
2023-05-16T03:54:48.148Z,70.70
2023-05-16T03:57:15.330Z,76.10
2023-05-16T03:59:42.588Z,73.97
2023-05-16T04:02:09.965Z,77.00
2023-05-16T04:04:37.145Z,80.72
2023-05-16T04:07:04.775Z,81.75
2023-05-16T04:09:32.036Z,78.68
2023-05-16T04:12:01.829Z,71.30
2023-05-16T04:14:29.267Z,68.15
2023-05-16T04:16:56.485Z,68.50
2023-05-16T04:19:24.044Z,71.03
2023-05-16T04:21:52.170Z,59.22
2023-05-16T04:24:19.537Z,83.07
2023-05-16T04:26:46.679Z,85.35
2023-05-16T04:29:14.643Z,83.78
2023-05-16T04:31:42.001Z,66.05
2023-05-16T04:34:09.242Z,63.00
2023-05-16T04:36:37.133Z,59.22
2023-05-16T04:39:04.690Z,68.60
2023-05-16T04:41:31.849Z,41.42
2023-05-16T04:44:00.739Z,31.80
2023-05-16T04:46:28.005Z,33.80
2023-05-16T04:48:55.236Z,48.95
2023-05-16T04:51:22.453Z,52.75
2023-05-16T04:53:49.773Z,66.70
2023-05-16T04:56:17.057Z,59.50
2023-05-16T04:58:44.354Z,59.38
2023-05-16T05:01:11.766Z,59.95
2023-05-16T05:03:39.065Z,55.63
2023-05-16T05:06:06.929Z,46.30
2023-05-16T05:08:34.249Z,42.80
2023-05-16T05:11:01.643Z,35.10
2023-05-16T05:13:28.892Z,32.75
2023-05-16T05:15:56.388Z,36.70
2023-05-16T05:18:23.621Z,33.10
2023-05-16T05:20:52.674Z,37.80
2023-05-16T05:23:20.908Z,38.90
2023-05-16T05:25:48.487Z,39.15
2023-05-16T05:28:16.326Z,34.92
2023-05-16T05:30:43.654Z,35.05
2023-05-16T05:33:15.882Z,34.90
2023-05-16T05:35:43.208Z,29.95
2023-05-16T05:38:10.674Z,33.20
2023-05-16T05:40:37.847Z,28.92
2023-05-16T05:43:05.196Z,28.40
2023-05-16T05:45:32.432Z,27.13
2023-05-16T05:47:59.724Z,29.42
2023-05-16T05:50:27.076Z,28.23
2023-05-16T05:52:56.320Z,35.10
2023-05-16T05:55:23.682Z,34.10
2023-05-16T05:57:51.107Z,37.72
2023-05-16T06:00:18.845Z,36.78
2023-05-16T06:02:48.547Z,55.78
2023-05-16T06:05:16.069Z,41.97
2023-05-16T06:07:43.316Z,33.92
2023-05-16T06:10:10.723Z,36.83
2023-05-16T06:12:38.012Z,40.85
2023-05-16T06:15:06.103Z,35.22
2023-05-16T06:17:33.414Z,37.63
2023-05-16T06:20:00.707Z,36.65
2023-05-16T06:22:28.083Z,37.03
2023-05-16T06:24:55.391Z,44.40
2023-05-16T06:27:22.897Z,37.63
2023-05-16T06:29:50.070Z,33.75
2023-05-16T06:32:17.369Z,36.20
2023-05-16T06:34:44.739Z,34.63
2023-05-16T06:37:12.012Z,33.58
2023-05-16T06:39:39.209Z,32.72
2023-05-16T06:42:06.988Z,29.60
2023-05-16T06:44:34.454Z,30.40
2023-05-16T06:47:01.915Z,27.42
2023-05-16T06:49:29.281Z,32.65
2023-05-16T06:51:56.532Z,29.27
2023-05-16T06:54:24.012Z,28.30
2023-05-16T06:56:51.394Z,30.45
2023-05-16T06:59:18.643Z,39.90
2023-05-16T07:01:46.034Z,22.52
2023-05-16T07:04:13.535Z,22.33
2023-05-16T07:06:40.928Z,23.58
2023-05-16T07:09:08.413Z,20.27
2023-05-16T07:11:35.675Z,18.77
2023-05-16T07:14:03.086Z,21.55
2023-05-16T07:16:30.429Z,18.23
2023-05-16T07:18:57.995Z,19.17
2023-05-16T07:21:25.519Z,17.27
2023-05-16T07:23:52.945Z,27.05
2023-05-16T07:26:23.079Z,22.75
2023-05-16T07:28:51.175Z,22.75
2023-05-16T07:31:18.781Z,19.17
2023-05-16T07:33:47.155Z,38.05
2023-05-16T07:36:16.631Z,24.00
2023-05-16T07:38:45.434Z,32.17
2023-05-16T07:41:12.895Z,21.30
2023-05-16T07:43:40.195Z,18.52
2023-05-16T07:46:07.480Z,26.55
2023-05-16T07:48:34.818Z,21.90
2023-05-16T07:51:02.020Z,36.55
2023-05-16T07:53:29.328Z,22.10
2023-05-16T07:55:56.751Z,29.27
2023-05-16T07:58:24.038Z,22.95
2023-05-16T08:00:51.223Z,24.55
2023-05-16T08:03:18.659Z,21.48
2023-05-16T08:05:46.104Z,26.05
2023-05-16T08:08:13.629Z,23.25
2023-05-16T08:10:40.828Z,26.42
2023-05-16T08:13:08.152Z,24.55
2023-05-16T08:15:35.953Z,28.08
2023-05-16T08:18:15.264Z,29.08
2023-05-16T08:20:43.709Z,23.92
2023-05-16T08:23:10.915Z,26.90
2023-05-16T08:25:38.272Z,24.00
2023-05-16T08:28:05.584Z,42.30
2023-05-16T08:30:32.788Z,30.08
2023-05-16T08:33:00.191Z,24.63
2023-05-16T08:35:27.707Z,33.00
2023-05-16T08:37:55.320Z,22.90
2023-05-16T08:40:27.275Z,24.77
2023-05-16T08:42:54.656Z,26.02
2023-05-16T08:45:23.646Z,36.08
2023-05-16T08:47:54.790Z,22.45
2023-05-16T08:50:23.017Z,23.02
2023-05-16T08:52:53.822Z,26.15
2023-05-16T08:55:24.523Z,21.70
2023-05-16T08:57:52.174Z,17.38
2023-05-16T09:00:20.685Z,30.25
2023-05-16T09:02:50.044Z,21.67
2023-05-16T09:05:18.113Z,19.77
2023-05-16T09:07:46.494Z,24.75
2023-05-16T09:12:43.344Z,34.20
2023-05-16T09:15:11.562Z,29.75
2023-05-16T09:17:46.360Z,25.75
2023-05-16T09:20:20.216Z,21.60
2023-05-16T09:23:00.006Z,26.77
2023-05-16T09:25:31.998Z,24.27
2023-05-16T09:28:02.401Z,22.70
2023-05-16T09:30:34.381Z,17.50
2023-05-16T09:33:02.841Z,21.95
2023-05-16T09:35:43.751Z,23.55
2023-05-16T09:38:17.974Z,25.17
2023-05-16T09:40:46.679Z,20.48
2023-05-16T09:43:17.637Z,20.73
2023-05-16T09:45:49.562Z,18.85
2023-05-16T09:48:18.256Z,20.88
2023-05-16T09:50:53.313Z,18.70
2023-05-16T09:53:30.220Z,21.65
2023-05-16T09:56:02.176Z,19.13
2023-05-16T09:58:38.129Z,17.73
2023-05-16T10:01:07.860Z,30.23
2023-05-16T10:03:38.853Z,20.02
2023-05-16T10:06:07.894Z,17.10
2023-05-16T10:08:37.159Z,17.70
2023-05-16T10:11:06.760Z,24.92
2023-05-16T10:13:36.512Z,19.50
2023-05-16T10:16:12.235Z,27.30
2023-05-16T10:18:41.324Z,15.95
2023-05-16T10:21:15.039Z,21.83
2023-05-16T10:23:46.500Z,20.17
2023-05-16T10:26:17.227Z,17.17
2023-05-16T10:28:45.564Z,17.58
2023-05-16T10:33:41.199Z,21.25
2023-05-16T10:36:10.911Z,18.30
2023-05-16T10:38:40.156Z,20.35
2023-05-16T10:41:08.770Z,14.93
2023-05-16T10:43:36.800Z,17.73
2023-05-16T10:46:14.438Z,23.08
2023-05-16T10:48:42.817Z,17.63
2023-05-16T10:51:22.480Z,18.85
2023-05-16T10:54:07.592Z,20.42
2023-05-16T10:56:35.579Z,17.10
2023-05-16T10:59:04.686Z,20.20
2023-05-16T11:01:36.099Z,20.88
2023-05-16T11:04:10.986Z,24.10
2023-05-16T11:06:41.046Z,23.05
2023-05-16T11:09:14.292Z,18.27
2023-05-16T11:11:56.086Z,17.92
2023-05-16T11:14:34.773Z,19.00
2023-05-16T11:17:22.732Z,25.90
2023-05-16T11:19:55.877Z,23.30
2023-05-16T11:22:34.316Z,19.08
2023-05-16T11:25:06.470Z,22.63
2023-05-16T11:27:46.426Z,22.23
2023-05-16T11:30:17.765Z,22.52
2023-05-16T11:32:48.459Z,21.58
2023-05-16T11:35:18.353Z,20.30
2023-05-16T11:37:47.739Z,20.98
2023-05-16T11:40:17.270Z,22.80
2023-05-16T11:42:49.183Z,23.55
2023-05-16T11:45:24.328Z,18.42
2023-05-16T11:47:51.840Z,23.08
2023-05-16T11:50:23.612Z,19.20
2023-05-16T11:52:54.543Z,16.70
2023-05-16T11:55:40.441Z,22.20
2023-05-16T11:58:10.285Z,22.90
2023-05-16T12:00:37.569Z,22.15
2023-05-16T12:03:06.437Z,24.58
2023-05-16T12:05:35.592Z,23.75
2023-05-16T12:08:04.674Z,20.85
2023-05-16T12:10:34.581Z,20.90
2023-05-16T12:13:03.419Z,21.98
2023-05-16T12:15:31.088Z,23.63
2023-05-16T12:17:58.922Z,21.77
2023-05-16T12:20:26.553Z,23.13
2023-05-16T12:22:57.540Z,21.88
2023-05-16T12:25:37.728Z,25.67
2023-05-16T12:28:07.750Z,23.42
2023-05-16T12:30:35.488Z,19.55
2023-05-16T12:33:16.173Z,25.88
2023-05-16T12:35:47.877Z,23.02
2023-05-16T12:38:17.710Z,22.67
2023-05-16T12:40:47.397Z,33.05
2023-05-16T12:43:22.020Z,25.20
2023-05-16T12:45:57.714Z,22.27
2023-05-16T12:48:37.165Z,24.30
2023-05-16T12:51:19.063Z,20.10
2023-05-16T12:54:05.829Z,21.95
2023-05-16T12:59:08.862Z,25.40
2023-05-16T13:01:36.785Z,28.80
2023-05-16T13:04:05.003Z,28.00
2023-05-16T13:06:48.968Z,29.67
2023-05-16T13:09:19.995Z,22.17
2023-05-16T13:11:47.347Z,29.75
2023-05-16T13:14:14.556Z,20.35
2023-05-16T13:16:41.907Z,22.65
2023-05-16T13:19:09.549Z,21.75
2023-05-16T13:21:37.032Z,26.02
2023-05-16T13:24:04.940Z,22.00
2023-05-16T13:26:32.128Z,24.77
2023-05-16T13:29:00.442Z,27.13
2023-05-16T13:33:54.819Z,23.77
2023-05-16T13:36:22.012Z,23.05
2023-05-16T13:38:49.189Z,25.92
2023-05-16T13:41:16.662Z,21.85
2023-05-16T13:43:43.907Z,24.48
2023-05-16T13:46:11.216Z,24.23
2023-05-16T13:48:38.575Z,34.03
2023-05-16T13:51:05.943Z,23.35
2023-05-16T13:53:33.179Z,18.88
2023-05-16T13:56:00.639Z,24.55
2023-05-16T13:58:28.064Z,28.33
2023-05-16T14:00:56.031Z,20.50
2023-05-16T14:03:24.110Z,21.42
2023-05-16T14:05:51.813Z,21.67
2023-05-16T14:08:19.087Z,20.90
2023-05-16T14:10:46.281Z,24.30
2023-05-16T14:13:13.533Z,28.17
2023-05-16T14:15:40.900Z,20.95
2023-05-16T14:18:08.232Z,22.38
2023-05-16T14:20:35.825Z,21.73
2023-05-16T14:23:03.876Z,19.38
2023-05-16T14:25:31.189Z,20.20
2023-05-16T14:27:58.491Z,18.20
2023-05-16T14:30:26.496Z,21.00
2023-05-16T14:32:53.930Z,24.05
2023-05-16T14:35:21.137Z,25.00
2023-05-16T14:37:48.308Z,24.27
2023-05-16T14:40:15.624Z,18.67
2023-05-16T14:42:42.809Z,16.10
2023-05-16T14:45:10.738Z,19.13
2023-05-16T14:47:40.829Z,19.48
2023-05-16T14:50:09.246Z,21.10
2023-05-16T14:52:40.062Z,21.20
2023-05-16T14:55:07.562Z,19.77
2023-05-16T14:57:34.741Z,14.88
2023-05-16T15:00:02.005Z,13.45
2023-05-16T15:02:30.126Z,13.63
2023-05-16T15:04:57.545Z,17.10
2023-05-16T15:07:25.408Z,18.35
2023-05-16T15:09:52.582Z,17.67
2023-05-16T15:12:19.779Z,16.42
2023-05-16T15:14:46.929Z,18.70
2023-05-16T15:17:14.825Z,20.95
2023-05-16T15:19:42.149Z,21.02
2023-05-16T15:22:10.849Z,21.65
2023-05-16T15:24:38.218Z,20.75
2023-05-16T15:27:06.084Z,20.23
2023-05-16T15:29:33.275Z,27.55
2023-05-16T15:32:06.099Z,22.90
2023-05-16T15:34:35.112Z,22.90
2023-05-16T15:37:02.449Z,22.75
2023-05-16T15:39:29.649Z,25.58
2023-05-16T15:42:10.182Z,21.35
2023-05-16T15:44:38.700Z,23.00
2023-05-16T15:47:06.798Z,21.85
2023-05-16T15:52:01.294Z,19.52
2023-05-16T15:54:29.331Z,20.63
2023-05-16T15:56:57.242Z,25.95
2023-05-16T15:59:24.793Z,18.38
2023-05-16T16:01:52.032Z,43.70
2023-05-16T16:04:23.397Z,26.08
2023-05-16T16:06:51.090Z,21.40
2023-05-16T16:09:18.362Z,19.20
2023-05-16T16:11:45.719Z,19.13
2023-05-16T16:14:12.952Z,18.77
2023-05-16T16:16:40.667Z,18.67
2023-05-16T16:19:08.529Z,23.85
2023-05-16T16:21:35.975Z,20.17
2023-05-16T16:24:03.673Z,20.90
2023-05-16T16:26:31.839Z,19.25
2023-05-16T16:28:59.971Z,23.70
2023-05-16T16:31:27.236Z,21.17
2023-05-16T16:33:54.765Z,20.48
2023-05-16T16:36:22.199Z,18.63
2023-05-16T16:38:49.441Z,23.70
2023-05-16T16:41:16.699Z,23.27
2023-05-16T16:43:43.895Z,22.08
2023-05-16T16:46:11.196Z,22.85
2023-05-16T16:48:38.457Z,20.13
2023-05-16T16:51:05.664Z,26.27
2023-05-16T16:53:33.005Z,24.13
2023-05-16T16:56:00.329Z,18.73
2023-05-16T16:58:27.985Z,22.85
2023-05-16T17:00:55.240Z,16.13
2023-05-16T17:03:22.670Z,17.75
2023-05-16T17:05:50.020Z,20.60
2023-05-16T17:08:17.462Z,23.30
2023-05-16T17:10:44.760Z,19.85
2023-05-16T17:13:14.196Z,41.03
2023-05-16T17:15:43.982Z,20.80
2023-05-16T17:18:11.357Z,20.20
2023-05-16T17:20:38.698Z,27.55
2023-05-16T17:23:06.224Z,38.25
2023-05-16T17:25:33.484Z,41.28
2023-05-16T17:28:00.784Z,29.83
2023-05-16T17:30:28.017Z,42.72
2023-05-16T17:32:55.391Z,35.40
2023-05-16T17:35:22.931Z,24.90
2023-05-16T17:37:51.056Z,21.50
2023-05-16T17:40:18.909Z,21.33
2023-05-16T17:42:46.184Z,22.17
2023-05-16T17:45:15.946Z,22.90
2023-05-16T17:47:43.331Z,22.80
2023-05-16T17:50:11.349Z,22.50
2023-05-16T17:52:40.078Z,26.80
2023-05-16T17:55:09.290Z,19.95
2023-05-16T17:57:36.513Z,17.60
2023-05-16T18:00:06.991Z,23.48
2023-05-16T18:02:36.047Z,23.95
2023-05-16T18:05:05.586Z,19.52
2023-05-16T18:07:33.943Z,20.83
2023-05-16T18:10:01.289Z,19.77
2023-05-16T18:12:28.780Z,20.55
2023-05-16T18:14:57.603Z,18.15
2023-05-16T18:17:24.821Z,19.60
2023-05-16T18:19:55.328Z,26.35
2023-05-16T18:22:22.733Z,23.60
2023-05-16T18:24:50.651Z,27.92
2023-05-16T18:27:17.926Z,18.67
2023-05-16T18:29:45.093Z,19.85
2023-05-16T18:32:12.356Z,14.88
2023-05-16T18:34:39.604Z,16.40
2023-05-16T18:37:06.841Z,17.58
2023-05-16T18:39:34.119Z,18.75
2023-05-16T18:42:01.470Z,23.88
2023-05-16T18:44:28.776Z,25.17
2023-05-16T18:46:57.571Z,22.90
2023-05-16T18:49:24.819Z,17.58
2023-05-16T18:51:52.088Z,22.38
2023-05-16T18:54:19.377Z,18.58
2023-05-16T18:56:46.983Z,21.50
2023-05-16T18:59:14.215Z,20.27
2023-05-16T19:01:41.506Z,19.98
2023-05-16T19:04:08.959Z,21.33
2023-05-16T19:06:37.675Z,20.40
2023-05-16T19:09:06.021Z,14.65
2023-05-16T19:11:33.290Z,22.02
2023-05-16T19:14:00.503Z,19.38
2023-05-16T19:16:27.839Z,15.65
2023-05-16T19:18:55.231Z,26.23
2023-05-16T19:21:22.530Z,18.50
2023-05-16T19:23:49.761Z,17.60
2023-05-16T19:26:17.179Z,23.13
2023-05-16T19:28:44.383Z,20.05
2023-05-16T19:31:11.638Z,19.77
2023-05-16T19:33:38.955Z,28.90
2023-05-16T19:36:06.956Z,17.77
2023-05-16T19:38:34.692Z,19.08
2023-05-16T19:41:02.030Z,18.20
2023-05-16T19:43:29.680Z,21.15
2023-05-16T19:45:56.886Z,26.05
2023-05-16T19:48:24.147Z,17.60
2023-05-16T19:50:52.224Z,19.90
2023-05-16T19:53:19.452Z,25.70
2023-05-16T19:55:48.173Z,16.40
2023-05-16T19:58:16.367Z,18.02
2023-05-16T20:00:43.796Z,20.17
2023-05-16T20:03:11.424Z,24.10
2023-05-16T20:05:38.659Z,19.50
2023-05-16T20:08:05.877Z,18.60
2023-05-16T20:10:33.108Z,18.98
2023-05-16T20:13:00.284Z,18.58
2023-05-16T20:15:27.730Z,19.20
2023-05-16T20:17:55.239Z,22.52
2023-05-16T20:20:22.497Z,22.23
2023-05-16T20:22:49.731Z,18.92
2023-05-16T20:25:17.195Z,30.75
2023-05-16T20:27:44.416Z,21.15
2023-05-16T20:30:12.501Z,16.95
2023-05-16T20:32:39.816Z,22.80
2023-05-16T20:35:10.053Z,17.02
2023-05-16T20:37:38.044Z,22.67
2023-05-16T20:40:06.555Z,21.98
2023-05-16T20:42:34.415Z,20.48
2023-05-16T20:45:01.730Z,20.98
2023-05-16T20:47:29.860Z,21.77
2023-05-16T20:49:57.067Z,21.77
2023-05-16T20:52:24.296Z,23.23
2023-05-16T20:54:51.498Z,22.48
2023-05-16T20:57:18.663Z,23.55
2023-05-16T20:59:45.873Z,24.08
2023-05-16T21:02:13.063Z,21.00
2023-05-16T21:04:40.504Z,19.52
2023-05-16T21:07:08.729Z,22.90
2023-05-16T21:12:05.774Z,22.00
2023-05-16T21:14:33.022Z,26.67
2023-05-16T21:17:00.180Z,22.33
2023-05-16T21:19:27.465Z,21.17
2023-05-16T21:21:54.705Z,22.25
2023-05-16T21:24:21.944Z,23.38
2023-05-16T21:26:49.126Z,24.23
2023-05-16T21:29:16.402Z,42.40
2023-05-16T21:31:43.607Z,23.83
2023-05-16T21:34:10.991Z,22.40
2023-05-16T21:36:38.276Z,25.60
2023-05-16T21:39:05.700Z,25.92
2023-05-16T21:41:32.890Z,22.70
2023-05-16T21:44:00.080Z,22.38
2023-05-16T21:46:27.339Z,29.33
2023-05-16T21:48:54.648Z,22.23
2023-05-16T21:51:22.016Z,23.70
2023-05-16T21:53:49.207Z,28.88
2023-05-16T21:56:17.695Z,24.55
2023-05-16T21:58:44.968Z,24.98
2023-05-16T22:01:12.916Z,28.52
2023-05-16T22:03:40.358Z,26.05
2023-05-16T22:06:07.697Z,26.33
2023-05-16T22:08:35.032Z,41.47
2023-05-16T22:11:02.375Z,31.35
2023-05-16T22:13:29.547Z,28.20
2023-05-16T22:18:30.472Z,30.73
2023-05-16T22:20:57.796Z,26.70
2023-05-16T22:23:25.122Z,29.10
2023-05-16T22:25:52.470Z,29.45
2023-05-16T22:28:19.660Z,27.10
2023-05-16T22:30:46.808Z,26.13
2023-05-16T22:33:14.064Z,27.50
2023-05-16T22:35:41.288Z,25.83
2023-05-16T22:38:08.466Z,26.65
2023-05-16T22:40:35.708Z,31.15
2023-05-16T22:43:02.887Z,32.03
2023-05-16T22:45:30.197Z,28.38
2023-05-16T22:47:57.906Z,24.48
2023-05-16T22:50:25.243Z,28.77
2023-05-16T22:52:52.462Z,27.08
2023-05-16T22:55:19.716Z,25.50
2023-05-16T22:57:46.959Z,24.90
2023-05-16T23:00:14.768Z,28.75
2023-05-16T23:02:42.059Z,24.70
2023-05-16T23:05:10.320Z,27.20
2023-05-16T23:07:37.517Z,32.30
2023-05-16T23:10:06.014Z,25.23
2023-05-16T23:12:33.160Z,32.00
2023-05-16T23:15:00.509Z,27.20
2023-05-16T23:17:27.773Z,27.98
2023-05-16T23:19:55.129Z,28.63
2023-05-16T23:22:22.371Z,31.52
2023-05-16T23:24:49.656Z,33.88
2023-05-16T23:27:16.900Z,25.13
2023-05-16T23:29:44.203Z,26.27
2023-05-16T23:32:11.535Z,23.55
2023-05-16T23:34:38.756Z,27.17
2023-05-16T23:37:06.205Z,26.60
2023-05-16T23:39:33.490Z,26.98
2023-05-16T23:42:01.728Z,25.20
2023-05-16T23:46:56.252Z,21.63
2023-05-16T23:49:23.499Z,26.75
2023-05-16T23:54:20.926Z,30.90
2023-05-16T23:56:48.216Z,26.70
2023-05-16T23:59:16.291Z,26.50
